Quiberon — FNQY — position and weather

sailwx.info

Track history (hours):
 
Tides and Currents Weather Stations Pressure Air Temp Water Temp Dewpoint Dewpoint Depression Visibility Wind Speed Wind Dir Waves Ship Positions

Quiberon

Operator: Brittany Ferries

Last reported at 2018-Dec-05 17:49 UTC. Time now 2018-Dec-11 07:27 UTC.
Position N 45°00' W 000°34'.

Length 25 m; draft 4.8 m.

Type: Tug. MMSI: 228296800.

Date/timePositionNaut miles runAvg speedWind from/ knotsBaromVisibWave heightAir tempDewpointWater temp
2018-Dec-05 17:49N 45°00' W 000°34'0 0.1
2018-Dec-05 17:24N 45°00' W 000°34'0 0.2
2018-Dec-05 16:14N 45°01' W 000°34'2 7.1
2018-Dec-05 15:59N 44°59' W 000°33'4 7.9
2018-Dec-05 15:30N 44°55' W 000°33'  
2018-Nov-29 07:57N 44°53' W 000°32'0 0.0
2018-Nov-29 02:28N 44°53' W 000°32'0 0.0
2018-Nov-29 01:36N 44°53' W 000°32'0 0.0
2018-Nov-29 01:30N 44°53' W 000°32'0 0.0
2018-Nov-29 01:00N 44°53' W 000°32'0 0.0
2018-Nov-28 22:33N 44°53' W 000°32'0 0.0
2018-Nov-28 22:30N 44°53' W 000°32'5 0.4
2018-Nov-28 09:57N 44°58' W 000°32'2 4.5
2018-Nov-28 09:30N 45°00' W 000°34'0 0.0
2018-Nov-28 09:00N 45°00' W 000°34'2 2.4
2018-Nov-28 08:18N 45°01' W 000°36'0 1.3
2018-Nov-28 08:00N 45°01' W 000°35'2 4.4
2018-Nov-28 07:30N 44°60' W 000°33'3 5.0
2018-Nov-28 06:59N 44°57' W 000°33'3 5.2
2018-Nov-28 06:25N 44°54' W 000°32'1 0.1
2018-Nov-27 21:02N 44°55' W 000°32'0 0.0
2018-Nov-27 20:39N 44°55' W 000°32'  
Track history (hours):
 
Tides and Currents Weather Stations Pressure Air Temp Water Temp Dewpoint Dewpoint Depression Visibility Wind Speed Wind Dir Waves Ship Positions

Quiberon

Operator: Brittany Ferries

Last reported at 2018-Dec-05 17:49 UTC. Time now 2018-Dec-11 07:27 UTC.
Position N 45°00' W 000°34'.

Length 25 m; draft 4.8 m.

Type: Tug. MMSI: 228296800.

Date/timePositionNaut miles runAvg speedWind from/ knotsBaromVisibWave heightAir tempDewpointWater temp
2018-Dec-05 17:49N 45°00' W 000°34'0 0.1
2018-Dec-05 17:24N 45°00' W 000°34'0 0.2
2018-Dec-05 16:14N 45°01' W 000°34'2 7.1
2018-Dec-05 15:59N 44°59' W 000°33'4 7.9
2018-Dec-05 15:30N 44°55' W 000°33'  
2018-Nov-29 07:57N 44°53' W 000°32'0 0.0
2018-Nov-29 02:28N 44°53' W 000°32'0 0.0
2018-Nov-29 01:36N 44°53' W 000°32'0 0.0
2018-Nov-29 01:30N 44°53' W 000°32'0 0.0
2018-Nov-29 01:00N 44°53' W 000°32'0 0.0
2018-Nov-28 22:33N 44°53' W 000°32'0 0.0
2018-Nov-28 22:30N 44°53' W 000°32'5 0.4
2018-Nov-28 09:57N 44°58' W 000°32'2 4.5
2018-Nov-28 09:30N 45°00' W 000°34'0 0.0
2018-Nov-28 09:00N 45°00' W 000°34'2 2.4
2018-Nov-28 08:18N 45°01' W 000°36'0 1.3
2018-Nov-28 08:00N 45°01' W 000°35'2 4.4
2018-Nov-28 07:30N 44°60' W 000°33'3 5.0
2018-Nov-28 06:59N 44°57' W 000°33'3 5.2
2018-Nov-28 06:25N 44°54' W 000°32'1 0.1
2018-Nov-27 21:02N 44°55' W 000°32'0 0.0
2018-Nov-27 20:39N 44°55' W 000°32'  

Dump ship's entire track history